Time;durP1;ratioP1;P1;durP2;ratioP2;P2;SDS_P1;SDS_P2;PMS_P1;PMS_P2;Temp;Humidity;BMP_temperature;BMP_pressure;BME280_temperature;BME280_humidity;BME280_pressure;Samples;Min_cycle;Max_cycle;Signal;HPM_P1;HPM_P2
2022/01/31 00:04:19;;;;;;;15.85;6.97;;;;;;;4.41;100.00;101376.59;10542267;28;20047;-79
2022/01/31 00:09:21;;;;;;;13.88;7.03;;;;;;;4.35;100.00;101363.75;10523714;28;20043;-78
2022/01/31 00:15:01;;;;;;;14.88;9.30;;;;;;;4.31;100.00;101327.50;10541129;28;20040;-78
2022/01/31 00:19:48;;;;;;;24.98;9.98;;;;;;;4.42;100.00;101322.78;10537241;28;20570;-74
2022/01/31 00:24:49;;;;;;;17.00;8.60;;;;;;;4.47;100.00;101310.78;10521216;28;20028;-73
2022/01/31 00:29:49;;;;;;;28.95;9.50;;;;;;;4.55;100.00;101295.63;10507262;28;20126;-74
2022/01/31 00:34:50;;;;;;;16.48;8.13;;;;;;;4.60;100.00;101260.34;10513302;28;20562;-74
2022/01/31 00:39:50;;;;;;;28.38;8.63;;;;;;;4.62;100.00;101228.81;10547985;28;20082;-74
2022/01/31 00:44:54;;;;;;;20.80;6.90;;;;;;;4.68;100.00;101213.97;10548914;28;20446;-75
2022/01/31 00:55:05;;;;;;;11.52;6.15;;;;;;;4.81;100.00;101192.97;10549100;28;20043;-73
2022/01/31 01:00:07;;;;;;;20.33;5.50;;;;;;;4.82;100.00;101170.53;10512449;28;20055;-74
2022/01/31 01:05:07;;;;;;;14.23;6.90;;;;;;;4.85;100.00;101154.97;10529315;28;20036;-74
2022/01/31 01:10:08;;;;;;;9.13;5.70;;;;;;;4.90;100.00;101133.88;10529268;28;20055;-74
2022/01/31 01:15:09;;;;;;;16.92;6.72;;;;;;;4.98;100.00;101122.38;10546618;28;20036;-74
2022/01/31 01:20:10;;;;;;;9.52;5.38;;;;;;;5.06;100.00;101102.78;10547404;28;20119;-74
2022/01/31 01:25:11;;;;;;;10.55;4.80;;;;;;;5.23;100.00;101093.00;10528151;28;20114;-75
2022/01/31 01:30:14;;;;;;;19.67;6.65;;;;;;;5.35;100.00;101086.38;10545378;28;20039;-75
2022/01/31 01:35:14;;;;;;;26.08;8.32;;;;;;;5.55;100.00;101082.47;10528042;28;20471;-74
2022/01/31 01:40:14;;;;;;;21.08;7.28;;;;;;;5.76;100.00;101057.88;10528923;28;20031;-75
2022/01/31 01:45:15;;;;;;;31.73;8.85;;;;;;;5.97;100.00;101068.22;10545390;28;20047;-75
2022/01/31 01:50:15;;;;;;;17.00;7.25;;;;;;;6.14;100.00;101052.13;10546860;28;20090;-75
2022/01/31 01:55:16;;;;;;;15.80;7.68;;;;;;;6.18;100.00;101029.28;10546083;28;20438;-75
2022/01/31 02:00:23;;;;;;;10.95;6.70;;;;;;;6.22;100.00;101023.41;10544698;28;20407;-75
2022/01/31 02:05:24;;;;;;;23.85;7.00;;;;;;;6.22;100.00;101034.19;10528654;28;20028;-76
2022/01/31 02:10:25;;;;;;;26.13;5.53;;;;;;;6.24;100.00;101032.13;10526333;28;20432;-75
2022/01/31 02:15:26;;;;;;;18.42;6.18;;;;;;;6.09;100.00;101006.91;10527882;28;20040;-76
2022/01/31 02:20:26;;;;;;;20.40;6.07;;;;;;;6.08;100.00;101016.00;10525902;28;20040;-76
2022/01/31 02:25:27;;;;;;;25.42;6.85;;;;;;;6.13;100.00;101010.97;10526313;28;20055;-76
2022/01/31 02:30:27;;;;;;;29.10;6.05;;;;;;;6.16;100.00;101001.69;10543596;28;20521;-76
2022/01/31 02:35:28;;;;;;;13.23;4.95;;;;;;;6.00;100.00;100986.41;10545070;28;20123;-77
2022/01/31 02:40:30;;;;;;;18.33;5.97;;;;;;;5.83;100.00;100969.38;10543175;28;20430;-77
2022/01/31 02:45:30;;;;;;;11.85;3.92;;;;;;;5.73;100.00;100971.38;10542332;28;20086;-77
2022/01/31 02:50:31;;;;;;;12.27;4.72;;;;;;;5.66;100.00;100960.44;10524182;28;20024;-77
2022/01/31 02:55:31;;;;;;;7.72;4.32;;;;;;;5.72;100.00;100961.63;10523804;28;20032;-77
2022/01/31 03:00:32;;;;;;;10.63;5.55;;;;;;;5.71;99.52;100950.06;10524425;28;20428;-77
2022/01/31 03:05:33;;;;;;;22.70;6.43;;;;;;;5.64;99.74;100951.69;10542054;28;20048;-77
2022/01/31 03:10:33;;;;;;;19.17;5.57;;;;;;;5.64;99.02;100954.38;10523965;28;20477;-77
2022/01/31 03:15:37;;;;;;;10.82;4.05;;;;;;;5.63;99.30;100968.81;10523787;28;20036;-77
2022/01/31 03:20:37;;;;;;;10.30;4.00;;;;;;;5.58;98.60;100955.03;10524519;28;20032;-77
2022/01/31 03:25:37;;;;;;;22.48;6.45;;;;;;;5.59;97.94;100956.72;10541925;28;20040;-77
2022/01/31 03:30:38;;;;;;;20.40;6.00;;;;;;;5.67;98.39;100940.63;10541329;28;20036;-77
2022/01/31 03:35:39;;;;;;;17.45;4.22;;;;;;;5.62;96.75;100944.81;10523020;28;20036;-76
2022/01/31 03:40:39;;;;;;;13.18;4.25;;;;;;;5.57;95.67;100919.28;10541487;28;20483;-76
2022/01/31 03:45:39;;;;;;;15.45;4.65;;;;;;;5.49;95.67;100921.13;10522481;28;20360;-76
2022/01/31 03:50:40;;;;;;;14.07;3.83;;;;;;;5.51;95.29;100927.16;10522572;28;20046;-76
2022/01/31 03:55:40;;;;;;;14.48;4.65;;;;;;;5.51;94.66;100911.03;10539800;28;20044;-76
2022/01/31 04:00:41;;;;;;;9.75;4.30;;;;;;;5.69;94.38;100917.13;10541396;28;20052;-76
2022/01/31 04:05:41;;;;;;;13.70;6.25;;;;;;;5.92;92.73;100906.56;10542200;28;20119;-76
2022/01/31 04:10:42;;;;;;;27.73;5.10;;;;;;;5.89;91.54;100900.69;10540145;28;20612;-76
2022/01/31 04:15:43;;;;;;;25.08;6.20;;;;;;;5.92;90.34;100894.97;10540562;28;20456;-76
2022/01/31 04:20:43;;;;;;;20.60;6.78;;;;;;;6.05;89.37;100890.81;10521899;28;20036;-75
2022/01/31 04:35:54;;;;;;;14.80;4.63;;;;;;;6.34;87.20;100875.16;10539599;28;20052;-75
2022/01/31 04:40:54;;;;;;;8.27;3.22;;;;;;;6.35;86.35;100866.94;10538905;28;20039;-75
2022/01/31 04:45:59;;;;;;;24.13;5.35;;;;;;;6.43;86.43;100890.28;10521126;28;20435;-76
2022/01/31 04:51:00;;;;;;;22.08;6.38;;;;;;;6.39;88.06;100888.94;10539086;28;20383;-76
2022/01/31 04:56:00;;;;;;;18.80;5.63;;;;;;;6.20;88.29;100868.63;10504282;28;20039;-75
2022/01/31 05:01:01;;;;;;;22.95;4.30;;;;;;;6.04;89.40;100890.97;10540487;28;20060;-75
2022/01/31 05:06:01;;;;;;;22.35;5.55;;;;;;;5.92;91.17;100889.59;10520367;28;20029;-75
2022/01/31 05:11:03;;;;;;;7.13;4.35;;;;;;;5.86;90.57;100884.91;10538775;28;20030;-76
2022/01/31 05:16:04;;;;;;;30.17;6.97;;;;;;;5.91;89.38;100883.41;10539579;28;20400;-75
2022/01/31 05:21:05;;;;;;;20.92;5.20;;;;;;;5.99;88.26;100887.94;10547430;28;20043;-75
2022/01/31 05:26:05;;;;;;;22.20;7.22;;;;;;;6.02;89.02;100883.06;10545911;28;20032;-75
2022/01/31 05:31:07;;;;;;;12.98;5.00;;;;;;;5.89;87.42;100873.81;10545432;28;20040;-76
2022/01/31 05:36:07;;;;;;;15.32;5.22;;;;;;;5.91;86.50;100909.44;10544578;28;20115;-76
2022/01/31 05:41:11;;;;;;;29.70;5.70;;;;;;;5.90;86.44;100875.47;10547247;28;20394;-75
2022/01/31 05:46:11;;;;;;;15.10;4.47;;;;;;;5.95;87.97;100873.19;10545851;28;20024;-75
2022/01/31 05:51:16;;;;;;;30.20;6.63;;;;;;;5.88;88.16;100874.84;10528497;28;20043;-78
2022/01/31 05:56:17;;;;;;;20.08;5.03;;;;;;;5.76;88.62;100874.31;10526607;28;20471;-77
2022/01/31 06:01:19;;;;;;;24.80;5.72;;;;;;;5.80;89.26;100892.59;10545613;28;20044;-77
2022/01/31 06:06:19;;;;;;;20.08;7.25;;;;;;;5.79;88.51;100865.91;10544311;28;20550;-76
2022/01/31 06:11:19;;;;;;;21.15;5.75;;;;;;;5.78;87.74;100888.44;10544316;28;20032;-78
2022/01/31 06:16:20;;;;;;;12.15;6.30;;;;;;;5.80;87.72;100852.28;10508573;28;20032;-76
2022/01/31 06:21:20;;;;;;;32.80;8.50;;;;;;;5.85;86.74;100849.13;10526262;28;20051;-77
2022/01/31 06:26:21;;;;;;;20.95;7.57;;;;;;;5.85;85.78;100869.78;10508507;28;20127;-77
2022/01/31 06:31:22;;;;;;;16.25;5.95;;;;;;;5.90;86.18;100872.78;10524468;28;20040;-77
2022/01/31 06:36:23;;;;;;;23.58;5.22;;;;;;;5.98;85.74;100870.16;10542720;28;20437;-78
2022/01/31 06:41:24;;;;;;;27.58;6.85;;;;;;;6.05;85.23;100877.38;10525056;28;20024;-77
2022/01/31 06:46:25;;;;;;;17.02;7.25;;;;;;;6.10;84.68;100895.69;10524511;28;20059;-77
2022/01/31 06:51:25;;;;;;;23.58;8.68;;;;;;;6.01;85.86;100899.38;10524193;28;20075;-77
2022/01/31 06:56:30;;;;;;;34.22;7.55;;;;;;;5.82;87.95;100930.91;10542104;28;20460;-77
2022/01/31 07:01:30;;;;;;;37.75;7.80;;;;;;;5.69;88.81;100911.75;10524932;28;20063;-77
2022/01/31 07:06:30;;;;;;;28.13;7.78;;;;;;;5.69;89.71;100913.59;10541917;28;20051;-77
2022/01/31 07:11:36;;;;;;;22.65;6.82;;;;;;;5.73;89.19;100939.13;10523522;28;20075;-77
2022/01/31 07:16:36;;;;;;;30.95;6.68;;;;;;;5.70;90.61;100926.03;10543030;28;20169;-77
2022/01/31 07:21:45;;;;;;;21.27;6.18;;;;;;;5.64;90.59;100907.88;10541669;28;20147;-77
2022/01/31 07:26:46;;;;;;;31.13;7.70;;;;;;;5.66;90.00;100913.94;10540884;28;20479;-77
2022/01/31 07:31:46;;;;;;;27.65;7.63;;;;;;;5.68;89.44;100904.72;10522247;28;20032;-77
2022/01/31 07:36:47;;;;;;;14.38;7.22;;;;;;;5.77;87.82;100927.03;10522670;28;20115;-77
2022/01/31 07:41:47;;;;;;;26.48;6.13;;;;;;;5.94;87.22;100922.56;10505466;28;20031;-77
2022/01/31 07:46:49;;;;;;;27.17;7.05;;;;;;;5.99;87.11;100939.84;10521706;28;20031;-77
2022/01/31 07:51:50;;;;;;;21.13;5.32;;;;;;;6.01;86.91;100926.25;10541697;28;20039;-77
2022/01/31 07:56:50;;;;;;;36.55;7.15;;;;;;;6.12;86.41;100952.81;10541306;28;20517;-77
2022/01/31 08:01:51;;;;;;;37.00;7.78;;;;;;;6.21;86.23;100940.22;10540372;28;20085;-77
2022/01/31 08:06:51;;;;;;;37.33;8.93;;;;;;;6.25;86.19;100953.16;10540204;28;20086;-77
2022/01/31 08:11:51;;;;;;;40.50;8.02;;;;;;;6.26;86.11;100957.53;10539756;28;20036;-77
2022/01/31 08:16:52;;;;;;;32.92;8.02;;;;;;;6.04;89.01;100972.47;10521407;28;20032;-77
2022/01/31 08:21:55;;;;;;;25.58;7.95;;;;;;;5.65;92.65;100971.34;10521058;28;20040;-78
2022/01/31 08:26:55;;;;;;;30.10;7.25;;;;;;;5.57;92.23;100988.28;10520676;28;20029;-77
2022/01/31 08:31:57;;;;;;;21.45;8.20;;;;;;;5.65;91.54;101012.50;10539268;28;20036;-77
2022/01/31 08:36:58;;;;;;;11.93;5.75;;;;;;;5.70;91.39;101028.13;10541131;28;20032;-77
2022/01/31 08:41:58;;;;;;;22.17;7.05;;;;;;;5.74;90.49;101030.34;10539724;28;20046;-77
2022/01/31 08:46:58;;;;;;;36.72;6.60;;;;;;;5.82;90.10;101048.31;10539661;28;20425;-77
2022/01/31 08:51:59;;;;;;;25.75;7.25;;;;;;;5.90;89.73;101045.63;10523981;28;20119;-77
2022/01/31 08:56:59;;;;;;;27.83;10.40;;;;;;;5.90;89.36;101020.59;10546874;28;20480;-77
2022/01/31 09:02:06;;;;;;;31.55;9.23;;;;;;;5.99;89.15;101031.25;10529893;28;20043;-76
2022/01/31 09:07:07;;;;;;;;;;;;;;;6.01;89.21;101042.69;10530208;28;20032;-78
2022/01/31 09:12:09;;;;;;;48.97;11.20;;;;;;;6.10;88.13;101046.25;10529305;28;19911;-78
2022/01/31 09:17:09;;;;;;;35.45;8.50;;;;;;;6.12;84.96;101044.22;10529465;28;20283;-78
2022/01/31 09:22:10;;;;;;;27.02;7.05;;;;;;;6.24;84.63;101058.19;10530040;28;20028;-78
2022/01/31 09:27:11;;;;;;;34.47;10.35;;;;;;;6.42;84.10;101052.69;10527760;28;20464;-78
2022/01/31 09:32:12;;;;;;;33.15;11.50;;;;;;;6.55;81.92;101066.47;10527483;28;20471;-78
2022/01/31 09:37:13;;;;;;;44.40;11.18;;;;;;;6.58;79.49;101054.56;10546158;28;20032;-79
2022/01/31 09:42:17;;;;;;;19.55;6.97;;;;;;;6.69;79.32;101084.63;10547283;28;20036;-79
2022/01/31 09:47:21;;;;;;;33.47;10.25;;;;;;;6.98;76.67;101092.19;10528231;28;20036;-79
2022/01/31 09:52:21;;;;;;;40.95;9.98;;;;;;;7.40;76.96;101101.94;10528521;28;20028;-79
2022/01/31 09:57:21;;;;;;;37.55;9.98;;;;;;;7.22;79.06;101112.91;10544569;28;20463;-79
2022/01/31 10:02:22;;;;;;;29.25;8.15;;;;;;;7.08;79.84;101110.88;10545625;28;20048;-79
2022/01/31 10:07:22;;;;;;;36.28;9.80;;;;;;;6.98;80.29;101129.06;10544375;28;20028;-80
2022/01/31 10:17:58;;;;;;;22.25;9.88;;;;;;;6.97;82.19;101174.00;10471380;28;20408;-80
2022/01/31 10:23:11;;;;;;;30.37;10.60;;;;;;;6.99;82.98;101195.38;10543556;28;20024;-80
2022/01/31 10:28:14;;;;;;;33.10;10.55;;;;;;;6.89;80.28;101210.81;10543590;28;20348;-80
2022/01/31 10:33:15;;;;;;;39.60;9.85;;;;;;;6.83;80.66;101216.88;10543798;28;20075;-80
2022/01/31 10:38:19;;;;;;;51.03;12.38;;;;;;;6.79;79.25;101202.06;10544387;28;20182;-80
2022/01/31 10:53:53;;;;;;;45.63;8.63;;;;;;;7.02;79.83;101199.56;10510738;28;20040;-81
2022/01/31 10:59:01;;;;;;;37.40;9.70;;;;;;;7.04;78.80;101211.03;10525984;28;20052;-80
2022/01/31 11:04:04;;;;;;;26.40;9.95;;;;;;;6.98;79.35;101201.75;10524838;28;20472;-79
2022/01/31 11:09:09;;;;;;;30.98;9.98;;;;;;;6.80;77.97;101230.69;10524848;28;20040;-80
2022/01/31 11:14:10;;;;;;;33.75;9.20;;;;;;;6.82;78.00;101232.19;10541771;28;20043;-80
2022/01/31 11:19:11;;;;;;;25.90;10.20;;;;;;;6.79;78.76;101245.97;10541628;28;20336;-81
2022/01/31 11:24:20;;;;;;;24.73;9.43;;;;;;;6.12;83.90;101264.69;10541217;28;20040;-81
2022/01/31 11:29:21;;;;;;;44.03;10.57;;;;;;;5.64;86.58;101241.84;10524225;28;20031;-82
2022/01/31 11:34:21;;;;;;;38.50;12.35;;;;;;;5.43;89.04;101301.28;10524240;28;20028;-82
2022/01/31 11:39:22;;;;;;;38.80;11.50;;;;;;;5.38;90.20;101292.00;10507951;28;20160;-80
2022/01/31 11:44:44;;;;;;;31.73;10.18;;;;;;;5.37;91.06;101312.66;10524444;28;20119;-79
2022/01/31 11:49:46;;;;;;;58.30;13.48;;;;;;;5.32;90.83;101326.53;10540903;28;20395;-80
2022/01/31 11:54:48;;;;;;;45.53;11.18;;;;;;;5.40;92.07;101328.47;10526851;28;20029;-80
2022/01/31 11:59:54;;;;;;;31.48;10.45;;;;;;;5.41;91.20;101297.91;10525453;28;20063;-81
2022/01/31 12:04:57;;;;;;;61.28;11.02;;;;;;;5.43;91.55;101328.16;10541194;28;20081;-81
2022/01/31 12:09:59;;;;;;;43.20;14.20;;;;;;;5.42;90.20;101328.28;10506174;28;20083;-80
2022/01/31 12:26:47;;;;;;;42.60;13.55;;;;;;;5.73;87.84;101348.38;10509451;28;20419;-80
2022/01/31 12:32:32;;;;;;;68.13;13.55;;;;;;;5.78;87.94;101364.91;10548630;28;20031;-80
2022/01/31 12:37:35;;;;;;;43.42;12.77;;;;;;;5.90;87.88;101353.91;10423945;28;20044;-80
2022/01/31 12:48:13;;;;;;;40.63;12.48;;;;;;;6.08;85.58;101372.72;10547083;28;20086;-80
2022/01/31 12:53:22;;;;;;;35.88;12.60;;;;;;;6.25;83.62;101361.94;10548066;28;20040;-79
2022/01/31 12:58:31;;;;;;;49.38;12.82;;;;;;;6.33;82.84;101388.03;10547546;28;20055;-79
2022/01/31 13:03:35;;;;;;;41.63;11.75;;;;;;;6.42;83.82;101389.78;10528768;28;20446;-80
2022/01/31 13:08:39;;;;;;;48.28;12.85;;;;;;;6.24;82.85;101397.03;10528319;28;20040;-80
2022/01/31 13:13:40;;;;;;;40.30;12.32;;;;;;;6.27;85.90;101410.19;10528526;28;20032;-79
2022/01/31 13:18:41;;;;;;;31.17;10.90;;;;;;;6.22;86.50;101425.94;10547004;28;20085;-80
2022/01/31 13:23:43;;;;;;;38.42;10.85;;;;;;;6.26;87.48;101438.09;10527654;28;20035;-79
2022/01/31 13:28:48;;;;;;;30.23;10.10;;;;;;;6.27;87.23;101413.72;10528241;28;20040;-80
2022/01/31 13:33:51;;;;;;;52.95;15.38;;;;;;;6.22;86.45;101448.31;10545767;28;20067;-80
2022/01/31 13:38:51;;;;;;;35.88;13.35;;;;;;;6.36;86.18;101454.13;10528004;28;20044;-79
2022/01/31 13:43:52;;;;;;;57.53;11.98;;;;;;;6.43;85.56;101447.13;10546015;28;20032;-79
2022/01/31 13:53:54;;;;;;;45.60;13.15;;;;;;;6.45;84.63;101443.28;10527084;28;20077;-79
2022/01/31 13:59:00;;;;;;;34.33;10.40;;;;;;;6.42;83.84;101480.41;10527176;28;20131;-79
2022/01/31 14:04:01;;;;;;;51.73;12.27;;;;;;;6.42;83.12;101486.63;10528077;28;20032;-80
2022/01/31 14:09:06;;;;;;;54.90;13.15;;;;;;;6.47;83.93;101494.22;10546541;28;20475;-80
2022/01/31 14:14:10;;;;;;;32.05;9.40;;;;;;;6.55;83.74;101513.13;10545615;28;20034;-80
2022/01/31 14:19:12;;;;;;;48.88;12.48;;;;;;;6.55;83.03;101513.13;10510305;28;20039;-80
2022/01/31 14:24:13;;;;;;;51.63;11.93;;;;;;;6.56;82.40;101522.88;10510555;28;20047;-80
2022/01/31 14:29:14;;;;;;;35.20;10.15;;;;;;;6.66;82.08;101526.31;10527672;28;20073;-79
2022/01/31 14:34:19;;;;;;;35.30;9.52;;;;;;;6.68;80.25;101551.25;10524853;28;20529;-80
2022/01/31 14:50:12;;;;;;;33.47;11.57;;;;;;;6.42;79.23;101561.13;10541672;28;20114;-79
2022/01/31 14:55:16;;;;;;;38.72;10.05;;;;;;;6.46;79.77;101597.47;10524703;28;20032;-79
2022/01/31 15:00:17;;;;;;;38.08;11.60;;;;;;;6.52;80.79;101578.03;10507678;28;20083;-79
2022/01/31 15:05:21;;;;;;;39.08;11.43;;;;;;;6.49;79.56;101614.16;10524356;28;20111;-79
2022/01/31 15:10:22;;;;;;;36.55;8.90;;;;;;;6.54;81.75;101643.31;10524508;28;20038;-78
2022/01/31 15:15:24;;;;;;;25.85;11.23;;;;;;;6.55;80.72;101647.69;10524091;28;20042;-79
2022/01/31 15:20:24;;;;;;;36.47;10.45;;;;;;;6.53;79.09;101655.03;10524206;28;20036;-79
2022/01/31 15:25:26;;;;;;;20.48;8.25;;;;;;;6.53;76.74;101665.81;10506544;28;20032;-78
2022/01/31 15:30:27;;;;;;;28.30;10.20;;;;;;;6.51;74.92;101679.44;10541823;28;20054;-78
2022/01/31 15:35:27;;;;;;;42.17;10.55;;;;;;;6.54;74.77;101710.56;10540980;28;20036;-78
2022/01/31 15:40:28;;;;;;;50.15;10.02;;;;;;;6.53;75.30;101707.00;10522728;28;20098;-78
2022/01/31 15:45:28;;;;;;;23.27;7.32;;;;;;;6.47;73.35;101714.84;10523727;28;20055;-78
2022/01/31 15:50:29;;;;;;;35.65;11.70;;;;;;;6.47;73.86;101734.50;10540433;28;20028;-78
2022/01/31 15:55:30;;;;;;;47.33;7.57;;;;;;;6.50;75.01;101754.91;10540409;28;20032;-78
2022/01/31 16:00:30;;;;;;;42.00;9.98;;;;;;;6.49;74.94;101770.22;10540266;28;20510;-78
2022/01/31 16:05:31;;;;;;;21.00;7.90;;;;;;;6.41;72.26;101758.47;10521935;28;20032;-78
2022/01/31 16:10:31;;;;;;;30.40;7.43;;;;;;;6.36;72.39;101766.19;10521274;28;20054;-77
2022/01/31 16:15:32;;;;;;;25.45;10.07;;;;;;;6.35;71.94;101767.16;10540345;28;20032;-77
2022/01/31 16:20:33;;;;;;;19.45;6.82;;;;;;;6.36;72.70;101779.63;10505258;28;20352;-77
2022/01/31 16:25:33;;;;;;;25.48;7.13;;;;;;;6.32;72.04;101779.06;10539676;28;20375;-78
2022/01/31 16:30:34;;;;;;;23.35;6.53;;;;;;;6.35;72.80;101769.84;10523476;28;20471;-77
2022/01/31 16:35:34;;;;;;;21.38;6.90;;;;;;;6.39;74.70;101803.53;10540589;28;20024;-77
2022/01/31 16:40:35;;;;;;;17.33;8.32;;;;;;;6.34;73.61;101819.25;10538781;28;20533;-77
2022/01/31 16:45:39;;;;;;;24.90;8.88;;;;;;;6.42;76.67;101820.22;10539618;28;20036;-77
2022/01/31 16:50:40;;;;;;;24.08;6.80;;;;;;;6.38;74.64;101826.03;10540238;28;20115;-77
2022/01/31 16:55:42;;;;;;;32.38;7.40;;;;;;;6.35;74.22;101842.47;10522235;28;20123;-77
2022/01/31 17:00:43;;;;;;;53.10;8.32;;;;;;;6.35;75.29;101864.88;10521105;28;20052;-77
2022/01/31 17:05:44;;;;;;;30.40;10.15;;;;;;;6.35;75.90;101855.91;10520725;28;20383;-76
2022/01/31 17:10:45;;;;;;;31.52;8.88;;;;;;;6.32;74.34;101875.91;10504594;28;20043;-76
2022/01/31 17:15:45;;;;;;;30.17;9.30;;;;;;;6.33;74.60;101893.75;10547275;28;20400;-77
2022/01/31 17:20:46;;;;;;;18.60;6.00;;;;;;;6.26;73.54;101904.25;10511558;28;20032;-77
2022/01/31 17:25:46;;;;;;;40.70;10.20;;;;;;;6.31;75.22;101906.47;10546748;28;20071;-77
2022/01/31 17:30:46;;;;;;;16.10;6.57;;;;;;;6.28;74.87;101920.22;10547027;28;20143;-77
2022/01/31 17:35:47;;;;;;;22.10;6.43;;;;;;;6.28;75.46;101942.59;10554478;28;20032;-76
2022/01/31 17:40:47;;;;;;;30.02;6.75;;;;;;;6.24;75.59;101930.41;10563356;28;20455;-76
2022/01/31 17:45:48;;;;;;;25.48;6.63;;;;;;;6.21;74.08;101967.53;10522876;28;20122;-76
2022/01/31 17:50:48;;;;;;;31.40;7.28;;;;;;;6.24;76.99;101967.25;10545573;28;20068;-77
2022/01/31 17:55:49;;;;;;;19.77;7.65;;;;;;;6.20;74.94;101972.06;10511655;28;20119;-76
2022/01/31 18:00:49;;;;;;;23.83;6.82;;;;;;;6.19;73.59;102008.03;10544171;28;20044;-77
2022/01/31 18:05:50;;;;;;;22.10;6.65;;;;;;;6.25;75.61;102012.84;10509592;28;20028;-77
2022/01/31 18:10:50;;;;;;;32.08;8.52;;;;;;;6.18;76.63;102019.75;10544806;28;20032;-76
2022/01/31 18:15:50;;;;;;;19.02;7.90;;;;;;;6.04;78.29;102022.88;10525853;28;20086;-77
2022/01/31 18:20:51;;;;;;;18.23;8.20;;;;;;;5.89;79.79;102032.28;10544594;28;20040;-76
2022/01/31 18:25:51;;;;;;;30.95;7.20;;;;;;;5.91;79.85;102070.66;10543707;28;20106;-77
2022/01/31 18:30:52;;;;;;;39.05;8.00;;;;;;;5.77;79.70;102063.81;10526147;28;20055;-77
2022/01/31 18:35:53;;;;;;;24.65;5.88;;;;;;;5.71;80.42;102067.03;10543344;28;20047;-76
2022/01/31 18:40:54;;;;;;;33.55;9.23;;;;;;;5.72;81.83;102074.13;10509425;28;20047;-76
2022/01/31 18:45:54;;;;;;;28.88;6.68;;;;;;;5.78;80.73;102095.94;10543066;28;20028;-76
2022/01/31 18:50:58;;;;;;;16.77;6.03;;;;;;;5.86;81.68;102064.81;10524774;28;20411;-77
2022/01/31 18:55:59;;;;;;;12.40;5.97;;;;;;;5.77;82.17;102083.47;10541911;28;20090;-76
2022/01/31 19:01:00;;;;;;;37.17;7.30;;;;;;;5.58;82.72;102084.28;10525079;28;20070;-76
2022/01/31 19:06:00;;;;;;;25.85;6.63;;;;;;;5.67;84.17;102104.09;10524353;28;20035;-76
2022/01/31 19:11:20;;;;;;;25.70;6.43;;;;;;;5.69;83.80;102134.38;10523582;28;20497;-77
2022/01/31 19:16:22;;;;;;;21.20;4.78;;;;;;;5.34;84.74;102141.00;10543620;28;20162;-76
2022/01/31 19:21:25;;;;;;;9.32;4.18;;;;;;;5.18;83.63;102148.69;10524018;28;20051;-76
2022/01/31 19:26:25;;;;;;;5.88;3.00;;;;;;;4.99;83.29;102162.81;10506976;28;20038;-76
2022/01/31 19:31:26;;;;;;;19.40;4.13;;;;;;;4.92;84.20;102183.13;10541859;28;20040;-77
2022/01/31 19:36:26;;;;;;;27.13;3.80;;;;;;;4.87;85.14;102175.44;10522772;28;20403;-76
2022/01/31 19:46:45;;;;;;;11.77;4.72;;;;;;;4.66;87.06;102182.63;10525716;28;20460;-79
2022/01/31 19:51:46;;;;;;;16.23;5.18;;;;;;;4.88;87.26;102203.13;10523321;28;20040;-79
2022/01/31 19:56:46;;;;;;;15.77;5.38;;;;;;;4.96;84.58;102210.56;10522265;28;20067;-77
2022/01/31 20:01:47;;;;;;;12.02;4.88;;;;;;;5.10;83.75;102210.22;10540352;28;20059;-78
2022/01/31 20:06:48;;;;;;;27.02;6.22;;;;;;;5.29;81.81;102215.75;10540351;28;20069;-77
2022/01/31 20:11:48;;;;;;;33.75;5.88;;;;;;;5.35;81.58;102198.25;10540109;28;20536;-77
2022/01/31 20:16:48;;;;;;;13.68;5.22;;;;;;;5.31;80.90;102224.53;10540462;28;20035;-77
2022/01/31 20:21:49;;;;;;;20.17;6.25;;;;;;;5.12;80.64;102222.53;10540397;28;20035;-76
2022/01/31 20:26:50;;;;;;;10.35;3.78;;;;;;;4.97;80.90;102217.63;10540342;28;20071;-77
2022/01/31 20:31:50;;;;;;;12.40;4.20;;;;;;;5.02;81.00;102226.16;10539494;28;20036;-76
2022/01/31 20:36:51;;;;;;;20.17;4.63;;;;;;;4.95;80.29;102224.97;10521543;28;20032;-74
2022/01/31 20:41:52;;;;;;;17.27;3.83;;;;;;;4.99;80.63;102229.09;10539611;28;20028;-76
2022/01/31 20:46:54;;;;;;;29.92;5.97;;;;;;;5.07;81.99;102229.28;10540693;28;20032;-76
2022/01/31 20:51:55;;;;;;;11.50;3.80;;;;;;;5.17;82.45;102227.53;10529862;28;20032;-73
2022/01/31 20:56:55;;;;;;;14.13;3.70;;;;;;;5.04;80.98;102219.66;10547782;28;20536;-73
2022/01/31 21:01:56;;;;;;;14.35;5.82;;;;;;;4.90;80.71;102219.97;10547906;28;20060;-73
2022/01/31 21:06:56;;;;;;;15.43;5.22;;;;;;;4.85;81.97;102219.47;10547136;28;20127;-73
2022/01/31 21:11:57;;;;;;;18.52;5.82;;;;;;;4.71;81.77;102235.88;10528119;28;20110;-73
2022/01/31 21:16:59;;;;;;;11.57;3.78;;;;;;;4.70;82.03;102221.63;10529852;28;20086;-73
2022/01/31 21:21:59;;;;;;;8.23;4.00;;;;;;;4.63;81.90;102258.00;10546869;28;20043;-74
2022/01/31 21:27:00;;;;;;;7.85;3.78;;;;;;;4.57;81.18;102235.19;10547496;28;20032;-74
2022/01/31 21:32:00;;;;;;;9.00;3.38;;;;;;;4.57;81.29;102261.19;10548904;28;20036;-74
2022/01/31 21:37:00;;;;;;;10.23;4.38;;;;;;;4.55;80.79;102279.22;10530863;28;20128;-74
2022/01/31 21:42:01;;;;;;;21.50;5.07;;;;;;;4.68;81.28;102287.97;10545679;28;20106;-74
2022/01/31 21:47:01;;;;;;;16.02;3.78;;;;;;;4.55;81.36;102282.75;10525675;28;20097;-74
2022/01/31 21:52:02;;;;;;;13.95;3.40;;;;;;;4.51;80.76;102270.56;10544940;28;20168;-74
2022/01/31 21:57:05;;;;;;;17.35;3.38;;;;;;;4.51;82.64;102253.63;10546231;28;20078;-74
2022/01/31 22:02:07;;;;;;;5.30;3.15;;;;;;;4.48;83.25;102243.16;10549413;28;20052;-75
2022/01/31 22:07:07;;;;;;;7.82;3.88;;;;;;;4.54;82.93;102245.31;10526689;28;20035;-75
2022/01/31 22:12:08;;;;;;;10.05;3.38;;;;;;;4.66;83.77;102252.38;10526455;28;20130;-74
2022/01/31 22:17:09;;;;;;;12.35;3.78;;;;;;;4.72;84.24;102235.75;10544291;28;20028;-74
2022/01/31 22:22:09;;;;;;;14.68;3.78;;;;;;;4.72;85.51;102227.69;10543639;28;20036;-75
2022/01/31 22:27:10;;;;;;;16.45;3.28;;;;;;;4.73;85.58;102226.75;10526492;28;20028;-75
2022/01/31 22:32:10;;;;;;;27.30;4.93;;;;;;;4.73;85.85;102217.84;10543196;28;20035;-78
2022/01/31 22:37:11;;;;;;;17.88;4.65;;;;;;;4.68;85.82;102206.63;10543567;28;20062;-75
2022/01/31 22:42:14;;;;;;;23.17;4.65;;;;;;;4.55;85.87;102183.47;10525331;28;20364;-74
2022/01/31 22:47:15;;;;;;;14.40;4.35;;;;;;;4.32;86.98;102206.84;10525822;28;20039;-74
2022/01/31 22:52:15;;;;;;;23.05;5.20;;;;;;;4.40;87.84;102244.63;10543672;28;20115;-74
2022/01/31 22:57:15;;;;;;;8.80;4.18;;;;;;;4.47;89.88;102244.97;10524723;28;20449;-75
2022/01/31 23:02:16;;;;;;;7.43;2.88;;;;;;;4.53;87.74;102238.25;10543377;28;20144;-74
2022/01/31 23:07:16;;;;;;;9.85;2.90;;;;;;;4.37;87.41;102220.75;10525470;28;20039;-75
2022/01/31 23:12:17;;;;;;;8.02;4.28;;;;;;;4.22;86.65;102243.41;10542607;28;20451;-75
2022/01/31 23:17:27;;;;;;;21.88;4.45;;;;;;;4.11;87.32;102259.50;10525146;28;20127;-75
2022/01/31 23:59:36;;;;;;;3.13;2.15;;;;;;;5.03;86.89;102212.56;10522203;28;20052;-74
